sensor_id;sensor_type;location;lat;lon;timestamp;pressure;altitude;pressure_sealevel;temperature;humidity
78168;BME280;67410;42.698;23.378;2023-03-29T16:38:00;96087.28;;;6.19;31.22
78168;BME280;67410;42.698;23.378;2023-03-29T16:40:26;96080.19;;;6.27;31.74
78168;BME280;67410;42.698;23.378;2023-03-29T16:42:52;96080.63;;;6.31;31.27
78168;BME280;67410;42.698;23.378;2023-03-29T16:45:19;96087.56;;;6.24;31.04
78168;BME280;67410;42.698;23.378;2023-03-29T16:47:45;96091.16;;;6.23;31.68
78168;BME280;67410;42.698;23.378;2023-03-29T16:50:13;96088.44;;;6.16;32.29
78168;BME280;67410;42.698;23.378;2023-03-29T16:52:40;96099.31;;;6.28;31.92
78168;BME280;67410;42.698;23.378;2023-03-29T16:55:08;96097.94;;;6.32;31.60
78168;BME280;67410;42.698;23.378;2023-03-29T16:57:40;96102.91;;;6.27;32.45
78168;BME280;67410;42.698;23.378;2023-03-29T17:00:09;96099.09;;;6.29;32.44
78168;BME280;67410;42.698;23.378;2023-03-29T17:02:36;96103.34;;;6.30;31.81
78168;BME280;67410;42.698;23.378;2023-03-29T17:05:02;96107.84;;;6.22;32.55
78168;BME280;67410;42.698;23.378;2023-03-29T17:07:28;96104.97;;;6.31;32.88
78168;BME280;67410;42.698;23.378;2023-03-29T17:09:55;96093.31;;;6.19;33.40
78168;BME280;67410;42.698;23.378;2023-03-29T17:12:21;96105.69;;;6.25;32.29
78168;BME280;67410;42.698;23.378;2023-03-29T17:14:48;96110.94;;;6.25;32.61
78168;BME280;67410;42.698;23.378;2023-03-29T17:17:14;96107.38;;;6.18;32.90
78168;BME280;67410;42.698;23.378;2023-03-29T17:19:40;96104.63;;;6.11;32.49
78168;BME280;67410;42.698;23.378;2023-03-29T17:22:07;96114.63;;;6.08;33.22
78168;BME280;67410;42.698;23.378;2023-03-29T17:24:33;96113.16;;;6.05;32.46
78168;BME280;67410;42.698;23.378;2023-03-29T17:26:59;96122.72;;;6.21;32.26
78168;BME280;67410;42.698;23.378;2023-03-29T17:29:25;96124.19;;;6.24;32.10
78168;BME280;67410;42.698;23.378;2023-03-29T17:31:51;96115.09;;;6.11;33.46
78168;BME280;67410;42.698;23.378;2023-03-29T17:34:18;96120.44;;;6.18;33.22
78168;BME280;67410;42.698;23.378;2023-03-29T17:36:44;96124.56;;;6.13;32.53
78168;BME280;67410;42.698;23.378;2023-03-29T17:39:11;96130.25;;;6.16;31.96
78168;BME280;67410;42.698;23.378;2023-03-29T17:41:38;96133.19;;;6.21;32.12
78168;BME280;67410;42.698;23.378;2023-03-29T17:44:04;96125.41;;;6.05;31.89
78168;BME280;67410;42.698;23.378;2023-03-29T17:46:30;96132.72;;;6.18;31.94
78168;BME280;67410;42.698;23.378;2023-03-29T17:48:57;96125.22;;;6.15;32.00
78168;BME280;67410;42.698;23.378;2023-03-29T17:51:26;96130.25;;;6.16;32.36
78168;BME280;67410;42.698;23.378;2023-03-29T17:53:52;96136.44;;;6.23;32.31
78168;BME280;67410;42.698;23.378;2023-03-29T17:56:19;96131.53;;;6.20;31.08
78168;BME280;67410;42.698;23.378;2023-03-29T17:58:46;96141.38;;;6.18;32.43
78168;BME280;67410;42.698;23.378;2023-03-29T18:01:14;96138.91;;;6.17;32.55
78168;BME280;67410;42.698;23.378;2023-03-29T18:03:41;96136.66;;;6.14;32.15
78168;BME280;67410;42.698;23.378;2023-03-29T18:06:08;96139.22;;;6.22;32.00
78168;BME280;67410;42.698;23.378;2023-03-29T18:08:34;96148.41;;;6.18;32.19
78168;BME280;67410;42.698;23.378;2023-03-29T18:11:15;96139.91;;;6.16;31.97
78168;BME280;67410;42.698;23.378;2023-03-29T18:13:51;96147.97;;;6.06;32.50
78168;BME280;67410;42.698;23.378;2023-03-29T18:16:18;96153.00;;;6.07;32.80
78168;BME280;67410;42.698;23.378;2023-03-29T18:18:45;96143.84;;;6.11;32.64
78168;BME280;67410;42.698;23.378;2023-03-29T18:21:13;96145.47;;;6.13;32.56
78168;BME280;67410;42.698;23.378;2023-03-29T18:23:39;96161.81;;;6.15;33.33
78168;BME280;67410;42.698;23.378;2023-03-29T18:26:08;96161.50;;;6.09;33.18
78168;BME280;67410;42.698;23.378;2023-03-29T18:28:34;96153.00;;;6.07;32.54
78168;BME280;67410;42.698;23.378;2023-03-29T18:31:04;96159.50;;;5.89;33.23
78168;BME280;67410;42.698;23.378;2023-03-29T18:33:31;96155.88;;;5.90;33.20
78168;BME280;67410;42.698;23.378;2023-03-29T18:36:03;96155.22;;;5.88;33.30
78168;BME280;67410;42.698;23.378;2023-03-29T18:38:30;96144.97;;;5.78;33.16
78168;BME280;67410;42.698;23.378;2023-03-29T18:41:01;96143.31;;;5.77;33.50
78168;BME280;67410;42.698;23.378;2023-03-29T18:43:28;96144.13;;;5.77;33.89
78168;BME280;67410;42.698;23.378;2023-03-29T18:45:55;96150.34;;;5.76;33.79
78168;BME280;67410;42.698;23.378;2023-03-29T18:48:21;96149.94;;;5.65;34.12
78168;BME280;67410;42.698;23.378;2023-03-29T18:50:47;96152.72;;;5.55;34.51
78168;BME280;67410;42.698;23.378;2023-03-29T18:53:14;96150.09;;;5.55;34.49
78168;BME280;67410;42.698;23.378;2023-03-29T18:55:41;96151.59;;;5.50;34.64
78168;BME280;67410;42.698;23.378;2023-03-29T18:58:12;96150.81;;;5.41;35.05
78168;BME280;67410;42.698;23.378;2023-03-29T19:00:39;96145.13;;;5.37;34.94
78168;BME280;67410;42.698;23.378;2023-03-29T19:03:07;96136.66;;;5.27;34.94
78168;BME280;67410;42.698;23.378;2023-03-29T19:05:39;96148.72;;;5.28;35.71
78168;BME280;67410;42.698;23.378;2023-03-29T19:08:06;96141.88;;;5.27;35.87
78168;BME280;67410;42.698;23.378;2023-03-29T19:10:35;96150.88;;;5.17;35.70
78168;BME280;67410;42.698;23.378;2023-03-29T19:13:02;96151.34;;;5.20;36.22
78168;BME280;67410;42.698;23.378;2023-03-29T19:15:30;96147.47;;;5.16;36.97
78168;BME280;67410;42.698;23.378;2023-03-29T19:17:57;96154.44;;;5.24;36.48
78168;BME280;67410;42.698;23.378;2023-03-29T19:20:23;96151.53;;;5.19;37.83
78168;BME280;67410;42.698;23.378;2023-03-29T19:22:50;96155.78;;;5.12;37.04
78168;BME280;67410;42.698;23.378;2023-03-29T19:25:16;96152.53;;;5.09;37.48
78168;BME280;67410;42.698;23.378;2023-03-29T19:27:43;96147.13;;;5.19;38.49
78168;BME280;67410;42.698;23.378;2023-03-29T19:30:11;96148.59;;;5.14;37.39
78168;BME280;67410;42.698;23.378;2023-03-29T19:32:38;96145.34;;;5.12;37.19
78168;BME280;67410;42.698;23.378;2023-03-29T19:35:04;96150.72;;;5.10;37.33
78168;BME280;67410;42.698;23.378;2023-03-29T19:37:30;96146.16;;;5.04;37.25
78168;BME280;67410;42.698;23.378;2023-03-29T19:39:56;96150.06;;;5.08;37.95
78168;BME280;67410;42.698;23.378;2023-03-29T19:42:23;96142.25;;;5.08;37.77
78168;BME280;67410;42.698;23.378;2023-03-29T19:44:49;96145.03;;;5.06;38.52
78168;BME280;67410;42.698;23.378;2023-03-29T19:47:15;96142.72;;;5.03;38.74
78168;BME280;67410;42.698;23.378;2023-03-29T19:49:41;96139.97;;;4.97;36.87
78168;BME280;67410;42.698;23.378;2023-03-29T19:52:07;96138.34;;;5.04;38.17
78168;BME280;67410;42.698;23.378;2023-03-29T19:54:33;96138.03;;;4.91;38.54
78168;BME280;67410;42.698;23.378;2023-03-29T19:56:59;96147.31;;;4.93;37.83
78168;BME280;67410;42.698;23.378;2023-03-29T19:59:26;96145.88;;;4.91;38.08
78168;BME280;67410;42.698;23.378;2023-03-29T20:01:52;96148.78;;;5.04;38.17
78168;BME280;67410;42.698;23.378;2023-03-29T20:04:22;96157.09;;;4.99;38.31
78168;BME280;67410;42.698;23.378;2023-03-29T20:06:49;96156.13;;;4.92;38.93
78168;BME280;67410;42.698;23.378;2023-03-29T20:09:16;96155.28;;;5.00;40.04
78168;BME280;67410;42.698;23.378;2023-03-29T20:11:42;96149.25;;;4.99;40.28
78168;BME280;67410;42.698;23.378;2023-03-29T20:14:12;96155.31;;;4.75;40.52
78168;BME280;67410;42.698;23.378;2023-03-29T20:16:38;96145.53;;;4.37;42.66
78168;BME280;67410;42.698;23.378;2023-03-29T20:19:05;96147.47;;;4.43;42.02
78168;BME280;67410;42.698;23.378;2023-03-29T20:21:31;96149.09;;;4.44;41.95
78168;BME280;67410;42.698;23.378;2023-03-29T20:24:04;96145.84;;;4.34;42.54
78168;BME280;67410;42.698;23.378;2023-03-29T20:26:30;96155.13;;;4.28;42.74
78168;BME280;67410;42.698;23.378;2023-03-29T20:28:57;96148.56;;;4.16;43.30
78168;BME280;67410;42.698;23.378;2023-03-29T20:31:23;96153.44;;;4.11;43.17
78168;BME280;67410;42.698;23.378;2023-03-29T20:33:49;96132.13;;;4.07;43.35
78168;BME280;67410;42.698;23.378;2023-03-29T20:36:15;96144.22;;;4.41;41.56
78168;BME280;67410;42.698;23.378;2023-03-29T20:38:48;96134.78;;;4.64;40.40
78168;BME280;67410;42.698;23.378;2023-03-29T20:41:15;96143.09;;;4.84;40.47
78168;BME280;67410;42.698;23.378;2023-03-29T20:43:41;96142.78;;;4.87;40.31
78168;BME280;67410;42.698;23.378;2023-03-29T20:46:08;96135.88;;;5.02;39.24
78168;BME280;67410;42.698;23.378;2023-03-29T20:48:42;96146.31;;;5.10;39.36
78168;BME280;67410;42.698;23.378;2023-03-29T20:51:21;96134.41;;;5.08;38.94
78168;BME280;67410;42.698;23.378;2023-03-29T20:53:53;96142.84;;;5.26;39.28
78168;BME280;67410;42.698;23.378;2023-03-29T20:56:33;96142.84;;;5.26;38.83
78168;BME280;67410;42.698;23.378;2023-03-29T20:59:00;96145.63;;;5.33;39.03
78168;BME280;67410;42.698;23.378;2023-03-29T21:01:27;96140.22;;;5.34;38.80
78168;BME280;67410;42.698;23.378;2023-03-29T21:03:54;96142.50;;;5.46;38.96
78168;BME280;67410;42.698;23.378;2023-03-29T21:06:21;96145.44;;;5.42;39.32
78168;BME280;67410;42.698;23.378;2023-03-29T21:08:50;96145.94;;;5.38;38.40
78168;BME280;67410;42.698;23.378;2023-03-29T21:11:18;96137.59;;;5.42;39.56
78168;BME280;67410;42.698;23.378;2023-03-29T21:13:44;96139.41;;;5.42;39.89
78168;BME280;67410;42.698;23.378;2023-03-29T21:16:11;96141.97;;;5.50;39.17
78168;BME280;67410;42.698;23.378;2023-03-29T21:18:38;96153.22;;;5.59;39.60
78168;BME280;67410;42.698;23.378;2023-03-29T21:21:06;96144.25;;;5.53;38.74
78168;BME280;67410;42.698;23.378;2023-03-29T21:23:33;96145.78;;;5.39;39.12
78168;BME280;67410;42.698;23.378;2023-03-29T21:25:59;96140.88;;;5.44;39.10
78168;BME280;67410;42.698;23.378;2023-03-29T21:28:25;96141.03;;;5.43;39.06
78168;BME280;67410;42.698;23.378;2023-03-29T21:30:51;96145.91;;;5.46;39.30
78168;BME280;67410;42.698;23.378;2023-03-29T21:33:18;96150.81;;;5.41;40.31
78168;BME280;67410;42.698;23.378;2023-03-29T21:35:46;96150.72;;;5.18;42.28
78168;BME280;67410;42.698;23.378;2023-03-29T21:38:14;96150.44;;;4.89;43.87
78168;BME280;67410;42.698;23.378;2023-03-29T21:40:40;96142.28;;;4.59;44.18
78168;BME280;67410;42.698;23.378;2023-03-29T21:43:06;96146.19;;;4.55;44.10
78168;BME280;67410;42.698;23.378;2023-03-29T21:45:32;96146.03;;;4.32;44.26
78168;BME280;67410;42.698;23.378;2023-03-29T21:47:59;96146.00;;;4.40;44.59
78168;BME280;67410;42.698;23.378;2023-03-29T21:50:25;96133.13;;;4.23;45.12
78168;BME280;67410;42.698;23.378;2023-03-29T21:52:51;96135.72;;;4.23;45.04
78168;BME280;67410;42.698;23.378;2023-03-29T21:55:18;96138.03;;;4.34;45.61
78168;BME280;67410;42.698;23.378;2023-03-29T21:57:44;96131.00;;;4.42;46.10
78168;BME280;67410;42.698;23.378;2023-03-29T22:00:11;96133.31;;;4.37;46.54
78168;BME280;67410;42.698;23.378;2023-03-29T22:02:38;96125.47;;;4.21;46.22
78168;BME280;67410;42.698;23.378;2023-03-29T22:05:05;96135.91;;;4.29;46.06
78168;BME280;67410;42.698;23.378;2023-03-29T22:07:34;96137.38;;;4.32;45.28
78168;BME280;67410;42.698;23.378;2023-03-29T22:10:08;96133.31;;;4.46;44.36
78168;BME280;67410;42.698;23.378;2023-03-29T22:12:37;96132.34;;;4.55;45.78
78168;BME280;67410;42.698;23.378;2023-03-29T22:15:08;96133.66;;;4.59;45.96
78168;BME280;67410;42.698;23.378;2023-03-29T22:17:36;96136.09;;;4.52;44.68
78168;BME280;67410;42.698;23.378;2023-03-29T22:20:03;96131.50;;;4.46;45.03
78168;BME280;67410;42.698;23.378;2023-03-29T22:22:36;96124.50;;;4.47;46.03
78168;BME280;67410;42.698;23.378;2023-03-29T22:25:02;96127.78;;;4.49;44.19
78168;BME280;67410;42.698;23.378;2023-03-29T22:27:28;96121.25;;;4.53;45.83
78168;BME280;67410;42.698;23.378;2023-03-29T22:29:54;96115.53;;;4.49;45.15
78168;BME280;67410;42.698;23.378;2023-03-29T22:32:20;96121.75;;;4.48;44.62
78168;BME280;67410;42.698;23.378;2023-03-29T22:34:46;96117.16;;;4.66;43.47
78168;BME280;67410;42.698;23.378;2023-03-29T22:37:12;96130.88;;;4.85;44.64
78168;BME280;67410;42.698;23.378;2023-03-29T22:39:39;96115.53;;;4.82;42.93
78168;BME280;67410;42.698;23.378;2023-03-29T22:42:05;96121.88;;;4.95;43.33
78168;BME280;67410;42.698;23.378;2023-03-29T22:44:31;96131.31;;;5.13;42.34
78168;BME280;67410;42.698;23.378;2023-03-29T22:46:58;96119.88;;;5.14;42.74
78168;BME280;67410;42.698;23.378;2023-03-29T22:49:24;96125.63;;;4.93;43.94
78168;BME280;67410;42.698;23.378;2023-03-29T22:51:51;96129.34;;;5.06;43.79
78168;BME280;67410;42.698;23.378;2023-03-29T22:54:18;96121.88;;;4.95;45.19
78168;BME280;67410;42.698;23.378;2023-03-29T22:56:44;96121.25;;;4.77;45.33
78168;BME280;67410;42.698;23.378;2023-03-29T22:59:10;96130.03;;;4.76;44.61
78168;BME280;67410;42.698;23.378;2023-03-29T23:01:36;96122.53;;;4.73;45.03
78168;BME280;67410;42.698;23.378;2023-03-29T23:04:03;96123.19;;;4.83;45.81
78168;BME280;67410;42.698;23.378;2023-03-29T23:06:29;96118.78;;;4.92;45.18
78168;BME280;67410;42.698;23.378;2023-03-29T23:08:55;96120.09;;;4.80;45.35
78168;BME280;67410;42.698;23.378;2023-03-29T23:11:21;96123.19;;;4.75;45.21
78168;BME280;67410;42.698;23.378;2023-03-29T23:13:47;96125.66;;;4.60;46.48
78168;BME280;67410;42.698;23.378;2023-03-29T23:16:14;96125.81;;;4.51;46.96
78168;BME280;67410;42.698;23.378;2023-03-29T23:18:40;96122.06;;;4.45;47.17
78168;BME280;67410;42.698;23.378;2023-03-29T23:21:07;96124.50;;;4.47;47.23
78168;BME280;67410;42.698;23.378;2023-03-29T23:23:35;96118.81;;;4.51;46.76
78168;BME280;67410;42.698;23.378;2023-03-29T23:26:01;96121.25;;;4.45;47.32
78168;BME280;67410;42.698;23.378;2023-03-29T23:28:27;96126.94;;;4.48;47.73
78168;BME280;67410;42.698;23.378;2023-03-29T23:30:58;96116.53;;;4.48;48.09
78168;BME280;67410;42.698;23.378;2023-03-29T23:33:26;96119.94;;;4.49;47.79
78168;BME280;67410;42.698;23.378;2023-03-29T23:35:53;96121.56;;;4.41;47.78
78168;BME280;67410;42.698;23.378;2023-03-29T23:38:19;96114.25;;;4.53;46.22
78168;BME280;67410;42.698;23.378;2023-03-29T23:40:58;96123.69;;;4.87;45.74
78168;BME280;67410;42.698;23.378;2023-03-29T23:43:26;96109.94;;;5.01;44.77
78168;BME280;67410;42.698;23.378;2023-03-29T23:46:03;96121.97;;;5.26;44.72
78168;BME280;67410;42.698;23.378;2023-03-29T23:48:30;96112.81;;;5.30;45.16
78168;BME280;67410;42.698;23.378;2023-03-29T23:50:57;96106.44;;;5.41;44.86
78168;BME280;67410;42.698;23.378;2023-03-29T23:53:24;96111.50;;;5.42;45.33
78168;BME280;67410;42.698;23.378;2023-03-29T23:55:57;96104.75;;;5.48;45.21
78168;BME280;67410;42.698;23.378;2023-03-29T23:58:26;96109.69;;;5.43;45.45
